Terminal Aerodrome Forecast
Issued by NWS

Home | Current Version | Previous Version | Text Only | Print | Product List | Glossary On
Versions: 1 2 3 4 5 6 7 8 9 10 11 12 13 14 15 16 17 18 19 20 21 22 23 24 25 26 27 28 29 30 31 32 33 34 35 36 37 38
000
FTAK31 PANC 240447 AAC
TAFADL
TAF AMD
PADL 240447Z 2405/2424 18008KT 5SM -SN BR SCT005 BKN025 OVC050
      TEMPO 2405/2408 1SM -SN BR BKN007
     FM241000 15006KT 6SM -SHSN BKN030 OVC050
     FM241300 12005KT P6SM SCT030=

USA.gov is the U.S. government's official web portal to all federal, state and local government web resources and services.